createdAt,value
2017-11-12T00:01:27.894Z,5.13
2017-11-12T00:03:59.706Z,5.07
2017-11-12T00:06:30.735Z,5.05
2017-11-12T00:09:02.256Z,5.06
2017-11-12T00:11:33.256Z,5.03
2017-11-12T00:14:04.460Z,5.05
2017-11-12T00:16:35.653Z,4.97
2017-11-12T00:19:07.109Z,4.97
2017-11-12T00:21:37.958Z,4.95
2017-11-12T00:24:14.443Z,4.96
2017-11-12T00:26:45.983Z,4.92
2017-11-12T00:29:17.614Z,4.90
2017-11-12T00:31:48.998Z,4.87
2017-11-12T00:34:20.455Z,4.89
2017-11-12T00:36:51.069Z,4.89
2017-11-12T00:39:23.397Z,4.84
2017-11-12T00:41:54.352Z,4.87
2017-11-12T00:44:25.898Z,4.78
2017-11-12T00:46:58.549Z,4.80
2017-11-12T00:49:29.878Z,4.77
2017-11-12T00:52:00.816Z,4.76
2017-11-12T00:54:32.882Z,4.66
2017-11-12T00:57:03.561Z,4.79
2017-11-12T00:59:34.518Z,4.68
2017-11-12T01:02:05.187Z,4.62
2017-11-12T01:04:36.416Z,4.65
2017-11-12T01:07:07.306Z,4.63
2017-11-12T01:09:42.286Z,4.67
2017-11-12T01:12:20.963Z,4.67
2017-11-12T01:14:51.748Z,4.69
2017-11-12T01:17:22.720Z,4.65
2017-11-12T01:19:53.926Z,4.53
2017-11-12T01:22:24.630Z,4.59
2017-11-12T01:24:57.746Z,4.59
2017-11-12T01:27:29.236Z,4.56
2017-11-12T01:30:00.923Z,4.55
2017-11-12T01:32:31.768Z,4.55
2017-11-12T01:35:02.750Z,4.55
2017-11-12T01:37:33.449Z,4.47
2017-11-12T01:40:09.506Z,4.52
2017-11-12T01:42:45.176Z,4.49
2017-11-12T01:45:16.369Z,4.44
2017-11-12T01:47:47.935Z,4.42
2017-11-12T01:50:20.622Z,4.39
2017-11-12T01:52:53.859Z,4.36
2017-11-12T01:55:29.367Z,4.38
2017-11-12T01:58:01.723Z,4.39
2017-11-12T02:00:32.996Z,4.43
2017-11-12T02:03:03.860Z,4.34
2017-11-12T02:05:34.609Z,4.33
2017-11-12T02:08:06.968Z,4.35
2017-11-12T02:10:37.913Z,4.33
2017-11-12T02:13:09.675Z,4.28
2017-11-12T02:15:47.211Z,4.25
2017-11-12T02:18:18.260Z,4.23
2017-11-12T02:20:52.066Z,4.23
2017-11-12T02:23:23.505Z,4.20
2017-11-12T02:25:54.813Z,4.20
2017-11-12T02:28:26.609Z,4.15
2017-11-12T02:30:57.720Z,4.19
2017-11-12T02:33:50.805Z,4.17
2017-11-12T02:36:24.268Z,4.12
2017-11-12T02:38:59.830Z,4.12
2017-11-12T02:41:30.830Z,4.10
2017-11-12T02:44:01.746Z,4.09
2017-11-12T02:46:32.653Z,4.13
2017-11-12T02:49:07.778Z,4.12
2017-11-12T02:51:38.660Z,4.10
2017-11-12T02:54:10.071Z,4.10
2017-11-12T02:56:44.383Z,4.08
2017-11-12T02:59:18.537Z,4.08
2017-11-12T03:01:55.893Z,4.07
2017-11-12T03:04:28.488Z,4.08
2017-11-12T03:06:59.916Z,4.07
2017-11-12T03:09:46.027Z,4.04
2017-11-12T03:12:18.008Z,4.00
2017-11-12T03:14:51.121Z,3.98
2017-11-12T03:17:23.200Z,3.98
2017-11-12T03:19:54.076Z,3.98
2017-11-12T03:22:26.250Z,3.97
2017-11-12T03:24:57.748Z,3.94
2017-11-12T03:27:32.922Z,3.86
2017-11-12T03:30:10.256Z,3.86
2017-11-12T03:32:42.879Z,3.85
2017-11-12T03:35:13.906Z,3.84
2017-11-12T03:37:45.749Z,3.80
2017-11-12T03:40:17.795Z,3.78
2017-11-12T03:42:48.860Z,3.77
2017-11-12T03:45:19.927Z,3.71
2017-11-12T03:47:50.693Z,3.74
2017-11-12T03:50:21.987Z,3.71
2017-11-12T03:52:52.868Z,3.73
2017-11-12T03:55:23.697Z,3.74
2017-11-12T03:57:57.501Z,3.73
2017-11-12T04:00:28.919Z,3.71
2017-11-12T04:02:59.638Z,3.71
2017-11-12T04:05:30.491Z,3.69
2017-11-12T04:08:01.477Z,3.66
2017-11-12T04:10:44.504Z,3.68
2017-11-12T04:13:16.648Z,3.63
2017-11-12T04:15:54.922Z,3.58
2017-11-12T04:18:25.694Z,3.56
2017-11-12T04:20:56.685Z,3.60
2017-11-12T04:23:28.068Z,3.52
2017-11-12T04:25:58.852Z,3.55
2017-11-12T04:28:30.419Z,3.53
2017-11-12T04:31:01.353Z,3.54
2017-11-12T04:33:32.440Z,3.50
2017-11-12T04:36:03.982Z,3.52
2017-11-12T04:38:35.950Z,3.58
2017-11-12T04:41:07.705Z,3.56
2017-11-12T04:43:39.292Z,3.57
2017-11-12T04:46:11.226Z,3.58
2017-11-12T04:48:42.752Z,3.58
2017-11-12T04:51:13.698Z,3.59
2017-11-12T04:53:46.612Z,3.57
2017-11-12T04:56:19.703Z,3.55
2017-11-12T04:58:50.928Z,3.55
2017-11-12T05:01:22.430Z,3.56
2017-11-12T05:03:53.563Z,3.56
2017-11-12T05:06:28.200Z,3.49
2017-11-12T05:08:59.210Z,3.58
2017-11-12T05:11:30.100Z,3.56
2017-11-12T05:14:03.696Z,3.61
2017-11-12T05:16:36.388Z,3.63
2017-11-12T05:19:07.503Z,3.59
2017-11-12T05:21:38.652Z,3.56
2017-11-12T05:24:11.073Z,3.62
2017-11-12T05:26:42.220Z,3.51
2017-11-12T05:29:12.983Z,3.56
2017-11-12T05:31:44.400Z,3.53
2017-11-12T05:34:17.252Z,3.58
2017-11-12T05:36:50.657Z,3.61
2017-11-12T05:39:23.686Z,3.59
2017-11-12T05:41:55.813Z,3.57
2017-11-12T05:44:27.210Z,3.54
2017-11-12T05:46:58.232Z,3.54
2017-11-12T05:49:29.017Z,3.51
2017-11-12T05:52:01.546Z,3.53
2017-11-12T05:54:32.714Z,3.49
2017-11-12T05:57:04.542Z,3.54
2017-11-12T05:59:35.738Z,3.49
2017-11-12T06:02:06.500Z,3.44
2017-11-12T06:04:40.984Z,3.47
2017-11-12T06:07:15.810Z,3.44
2017-11-12T06:09:51.258Z,3.44
2017-11-12T06:12:31.785Z,3.34
2017-11-12T06:15:06.984Z,3.33
2017-11-12T06:17:53.692Z,3.32
2017-11-12T06:20:27.670Z,3.29
2017-11-12T06:22:59.751Z,3.26
2017-11-12T06:25:35.193Z,3.24
2017-11-12T06:28:10.969Z,3.24
2017-11-12T06:30:41.675Z,3.25
2017-11-12T06:33:12.719Z,3.30
2017-11-12T06:35:47.301Z,3.27
2017-11-12T06:38:18.380Z,3.27
2017-11-12T06:40:52.422Z,3.28
2017-11-12T06:43:27.342Z,3.27
2017-11-12T06:45:58.729Z,3.33
2017-11-12T06:48:50.826Z,3.35
2017-11-12T06:51:24.002Z,3.39
2017-11-12T06:53:57.324Z,3.39
2017-11-12T06:56:30.205Z,3.38
2017-11-12T06:59:00.937Z,3.38
2017-11-12T07:01:33.271Z,3.40
2017-11-12T07:04:04.257Z,3.42
2017-11-12T07:06:38.375Z,3.47
2017-11-12T07:09:10.016Z,3.50
2017-11-12T07:11:42.823Z,3.54
2017-11-12T07:14:13.997Z,3.53
2017-11-12T07:16:45.109Z,3.58
2017-11-12T07:19:16.473Z,3.54
2017-11-12T07:21:51.566Z,3.60
2017-11-12T07:24:22.388Z,3.60
2017-11-12T07:26:57.423Z,3.65
2017-11-12T07:29:29.134Z,3.65
2017-11-12T07:32:00.260Z,3.66
2017-11-12T07:34:31.562Z,3.72
2017-11-12T07:37:02.628Z,3.74
2017-11-12T07:39:33.817Z,3.76
2017-11-12T07:42:04.353Z,3.80
2017-11-12T07:44:37.293Z,3.82
2017-11-12T07:47:07.795Z,3.86
2017-11-12T07:49:40.216Z,3.89
2017-11-12T07:52:11.418Z,3.89
2017-11-12T07:54:42.570Z,3.93
2017-11-12T07:57:13.319Z,3.94
2017-11-12T07:59:44.835Z,3.96
2017-11-12T08:02:15.725Z,3.98
2017-11-12T08:04:46.545Z,3.97
2017-11-12T08:07:17.276Z,3.98
2017-11-12T08:09:49.379Z,3.99
2017-11-12T08:12:21.713Z,4.01
2017-11-12T08:14:54.241Z,4.02
2017-11-12T08:17:27.060Z,4.07
2017-11-12T08:20:00.209Z,4.07
2017-11-12T08:22:33.739Z,4.10
2017-11-12T08:25:13.636Z,4.18
2017-11-12T08:27:49.994Z,4.22
2017-11-12T08:30:24.346Z,4.25
2017-11-12T08:32:57.824Z,4.30
2017-11-12T08:35:33.307Z,4.32
2017-11-12T08:38:07.210Z,4.38
2017-11-12T08:40:42.208Z,4.36
2017-11-12T08:43:19.981Z,4.40
2017-11-12T08:45:57.603Z,4.45
2017-11-12T08:48:36.227Z,4.49
2017-11-12T08:51:18.095Z,4.55
2017-11-12T08:53:49.747Z,4.63
2017-11-12T08:56:22.744Z,4.70
2017-11-12T08:59:01.871Z,4.79
2017-11-12T09:01:48.015Z,4.79
2017-11-12T09:04:25.719Z,4.85
2017-11-12T09:07:03.334Z,4.88
2017-11-12T09:09:39.135Z,4.93
2017-11-12T09:12:29.207Z,4.97
2017-11-12T09:20:56.119Z,5.00
2017-11-12T09:23:33.538Z,5.00
2017-11-12T09:26:08.762Z,5.01
2017-11-12T09:28:41.860Z,5.01
2017-11-12T09:31:13.410Z,5.01
2017-11-12T09:33:45.009Z,5.06
2017-11-12T09:36:23.077Z,5.11
2017-11-12T09:38:54.646Z,5.11
2017-11-12T09:44:19.671Z,5.09
2017-11-12T09:46:54.777Z,5.07
2017-11-12T09:49:26.062Z,5.08
2017-11-12T09:51:57.433Z,5.06
2017-11-12T09:54:36.245Z,5.03
2017-11-12T09:57:07.956Z,5.07
2017-11-12T09:59:40.592Z,5.13
2017-11-12T10:02:11.779Z,5.13
2017-11-12T10:04:43.676Z,5.16
2017-11-12T10:07:14.559Z,5.15
2017-11-12T10:09:49.492Z,5.15
2017-11-12T10:12:34.138Z,5.19
2017-11-12T10:15:05.450Z,5.22
2017-11-12T10:17:36.617Z,5.20
2017-11-12T10:20:14.948Z,5.20
2017-11-12T10:22:50.953Z,5.20
2017-11-12T10:25:22.973Z,5.20
2017-11-12T10:28:01.020Z,5.20
2017-11-12T10:30:33.113Z,5.21
2017-11-12T10:33:04.161Z,5.19
2017-11-12T10:35:41.553Z,5.17
2017-11-12T10:38:16.878Z,5.20
2017-11-12T10:40:56.126Z,5.23
2017-11-12T10:43:35.257Z,5.25
2017-11-12T10:46:06.505Z,5.22
2017-11-12T10:48:39.902Z,5.22
2017-11-12T10:51:15.556Z,5.22
2017-11-12T10:53:53.142Z,5.20
2017-11-12T10:56:25.812Z,5.19
2017-11-12T10:59:00.298Z,5.12
2017-11-12T11:01:36.334Z,5.12
2017-11-12T11:07:08.834Z,5.03
2017-11-12T11:09:42.206Z,5.09
2017-11-12T11:12:13.175Z,5.06
2017-11-12T11:14:44.473Z,5.01
2017-11-12T11:17:15.878Z,4.96
2017-11-12T11:19:46.955Z,4.95
2017-11-12T11:22:19.146Z,4.97
2017-11-12T11:24:51.360Z,4.92
2017-11-12T11:27:22.310Z,4.88
2017-11-12T11:29:54.767Z,4.84
2017-11-12T11:32:26.552Z,4.77
2017-11-12T11:34:57.637Z,4.77
2017-11-12T11:37:28.653Z,4.72
2017-11-12T11:39:59.801Z,4.72
2017-11-12T11:42:30.851Z,4.66
2017-11-12T11:45:01.859Z,4.63
2017-11-12T11:47:32.679Z,4.66
2017-11-12T11:50:03.466Z,4.70
2017-11-12T11:52:34.257Z,4.78
2017-11-12T11:55:06.304Z,4.82
2017-11-12T11:57:37.736Z,4.82
2017-11-12T12:00:13.744Z,4.90
2017-11-12T12:02:44.768Z,4.98
2017-11-12T12:05:16.944Z,4.99
2017-11-12T12:07:51.634Z,5.07
2017-11-12T12:10:24.843Z,5.04
2017-11-12T12:13:01.016Z,4.96
2017-11-12T12:15:38.173Z,5.02
2017-11-12T12:18:18.701Z,5.03
2017-11-12T12:20:49.876Z,5.00
2017-11-12T12:23:21.203Z,5.07
2017-11-12T12:26:02.122Z,5.10
2017-11-12T12:28:38.960Z,5.09
2017-11-12T12:31:11.707Z,5.03
2017-11-12T12:33:52.648Z,4.94
2017-11-12T12:36:23.784Z,4.89
2017-11-12T12:38:58.593Z,4.83
2017-11-12T12:41:30.982Z,4.81
2017-11-12T12:44:04.306Z,4.81
2017-11-12T12:46:41.220Z,4.81
2017-11-12T12:49:12.924Z,4.80
2017-11-12T12:51:47.052Z,4.77
2017-11-12T12:54:17.671Z,4.78
2017-11-12T12:56:49.021Z,4.72
2017-11-12T12:59:20.100Z,4.74
2017-11-12T13:02:01.860Z,4.75
2017-11-12T13:04:41.607Z,4.78
2017-11-12T13:07:31.968Z,4.81
2017-11-12T13:10:21.086Z,4.84
2017-11-12T13:13:03.192Z,4.85
2017-11-12T13:15:41.793Z,4.90
2017-11-12T13:18:13.411Z,4.88
2017-11-12T13:20:45.045Z,4.91
2017-11-12T13:23:16.109Z,4.96
2017-11-12T13:25:47.046Z,5.00
2017-11-12T13:28:23.294Z,4.97
2017-11-12T13:30:54.302Z,4.98
2017-11-12T13:33:25.500Z,5.00
2017-11-12T13:35:56.629Z,4.98
2017-11-12T13:38:28.209Z,4.97
2017-11-12T13:40:59.546Z,4.98
2017-11-12T13:43:30.883Z,4.95
2017-11-12T13:46:02.866Z,4.93
2017-11-12T13:48:34.728Z,4.95
2017-11-12T13:51:09.894Z,4.92
2017-11-12T13:53:40.666Z,4.93
2017-11-12T13:56:15.608Z,4.95
2017-11-12T13:58:46.814Z,4.95
2017-11-12T14:01:18.660Z,4.94
2017-11-12T14:03:51.012Z,4.93
2017-11-12T14:06:21.967Z,4.92
2017-11-12T14:08:53.951Z,4.90
2017-11-12T14:11:25.799Z,4.88
2017-11-12T14:13:56.350Z,4.88
2017-11-12T14:16:27.658Z,4.84
2017-11-12T14:18:58.706Z,4.83
2017-11-12T14:21:30.427Z,4.82
2017-11-12T14:24:01.800Z,4.79
2017-11-12T14:26:32.583Z,4.80
2017-11-12T14:29:03.272Z,4.48
2017-11-12T14:31:34.384Z,4.52
2017-11-12T14:34:05.061Z,4.49
2017-11-12T14:36:35.744Z,4.58
2017-11-12T14:39:07.183Z,4.31
2017-11-12T14:41:38.066Z,4.20
2017-11-12T14:44:09.642Z,4.37
2017-11-12T14:46:40.341Z,4.20
2017-11-12T14:49:11.592Z,4.24
2017-11-12T14:51:42.349Z,4.07
2017-11-12T14:54:14.945Z,4.04
2017-11-12T14:56:48.185Z,4.17
2017-11-12T14:59:19.080Z,4.27
2017-11-12T15:01:50.820Z,4.32
2017-11-12T15:04:21.905Z,4.21
2017-11-12T15:06:52.751Z,4.08
2017-11-12T15:09:26.041Z,3.93
2017-11-12T15:11:57.162Z,3.88
2017-11-12T15:14:28.806Z,3.77
2017-11-12T15:17:00.190Z,3.80
2017-11-12T15:19:31.387Z,3.65
2017-11-12T15:22:03.178Z,3.63
2017-11-12T15:24:35.432Z,3.51
2017-11-12T15:27:06.789Z,3.62
2017-11-12T15:29:37.434Z,3.54
2017-11-12T15:32:10.748Z,3.50
2017-11-12T15:37:17.956Z,3.38
2017-11-12T15:39:49.896Z,3.45
2017-11-12T15:42:20.993Z,3.47
2017-11-12T15:44:52.036Z,3.43
2017-11-12T15:47:24.747Z,3.42
2017-11-12T15:49:56.281Z,3.49
2017-11-12T15:52:27.098Z,3.45
2017-11-12T15:54:58.422Z,3.46
2017-11-12T15:57:30.825Z,3.33
2017-11-12T16:00:02.710Z,3.35
2017-11-12T16:02:33.756Z,3.33
2017-11-12T16:05:04.673Z,3.38
2017-11-12T16:07:39.053Z,3.48
2017-11-12T16:10:12.766Z,3.53
2017-11-12T16:12:45.981Z,3.49
2017-11-12T16:15:18.003Z,3.61
2017-11-12T16:17:52.109Z,3.72
2017-11-12T16:20:25.697Z,3.51
2017-11-12T16:22:59.393Z,3.62
2017-11-12T16:25:32.761Z,3.58
2017-11-12T16:28:05.757Z,3.73
2017-11-12T16:47:38.787Z,3.43
2017-11-12T17:08:39.117Z,3.39
2017-11-12T17:11:26.446Z,3.44
2017-11-12T17:13:57.309Z,3.40
2017-11-12T17:16:32.195Z,3.50
2017-11-12T17:19:03.551Z,3.53
2017-11-12T17:21:34.916Z,3.57
2017-11-12T17:24:05.932Z,3.62
2017-11-12T17:26:50.515Z,3.62
2017-11-12T17:29:23.032Z,3.68
2017-11-12T17:31:57.375Z,3.72
2017-11-12T17:34:28.385Z,3.72
2017-11-12T17:37:01.534Z,3.75
2017-11-12T17:39:33.666Z,3.81
2017-11-12T17:42:05.614Z,3.86
2017-11-12T17:44:40.264Z,3.83
2017-11-12T17:47:14.419Z,3.79
2017-11-12T17:49:47.089Z,3.81
2017-11-12T17:52:29.906Z,3.72
2017-11-12T17:55:13.747Z,3.63
2017-11-12T17:57:45.828Z,3.70
2017-11-12T18:00:18.070Z,3.80
2017-11-12T18:05:55.473Z,3.73
2017-11-12T18:11:55.374Z,3.65
2017-11-12T18:14:41.051Z,3.65
2017-11-12T18:17:19.616Z,3.71
2017-11-12T18:19:52.979Z,3.70
2017-11-12T18:23:58.568Z,3.75
2017-11-12T18:32:58.557Z,3.75
2017-11-12T18:35:36.277Z,3.73
2017-11-12T18:38:13.824Z,3.69
2017-11-12T18:43:37.798Z,3.63
2017-11-12T18:46:17.517Z,3.65
2017-11-12T18:52:29.384Z,3.70
2017-11-12T18:55:08.457Z,3.76
2017-11-12T18:57:45.974Z,3.65
2017-11-12T19:02:56.523Z,3.65
2017-11-12T19:05:31.289Z,3.60
2017-11-12T19:08:05.624Z,3.60
2017-11-12T19:10:40.237Z,3.56
2017-11-12T19:13:18.157Z,3.63
2017-11-12T19:15:53.217Z,3.63
2017-11-12T19:18:27.110Z,3.66
2017-11-12T19:21:01.168Z,3.62
2017-11-12T19:23:34.386Z,3.67
2017-11-12T19:26:11.060Z,3.67
2017-11-12T19:28:45.219Z,3.72
2017-11-12T19:31:21.033Z,3.62
2017-11-12T19:33:54.103Z,3.64
2017-11-12T19:36:25.895Z,3.68
2017-11-12T19:38:58.207Z,3.65
2017-11-12T19:45:35.875Z,3.70
2017-11-12T19:48:06.896Z,3.72
2017-11-12T19:50:38.053Z,3.74
2017-11-12T19:53:08.937Z,3.62
2017-11-12T19:55:40.041Z,3.64
2017-11-12T19:58:44.669Z,3.62
2017-11-12T20:01:51.726Z,3.58
2017-11-12T20:13:49.253Z,3.60
2017-11-12T20:16:31.221Z,3.53
2017-11-12T20:19:03.288Z,3.39
2017-11-12T20:21:35.166Z,3.58
2017-11-12T20:24:06.178Z,3.52
2017-11-12T20:26:37.832Z,3.50
2017-11-12T20:29:09.313Z,3.52
2017-11-12T20:31:40.092Z,3.37
2017-11-12T20:34:11.479Z,3.34
2017-11-12T20:50:51.938Z,3.35
2017-11-12T22:39:41.860Z,2.77
2017-11-12T22:42:14.712Z,2.86
2017-11-12T22:44:46.588Z,2.88
2017-11-12T22:47:18.319Z,2.87
2017-11-12T22:49:53.534Z,2.83
2017-11-12T22:52:28.995Z,2.91
2017-11-12T22:55:00.952Z,2.91
2017-11-12T22:57:49.633Z,2.96
2017-11-12T23:00:27.723Z,3.00
2017-11-12T23:03:17.180Z,3.06
2017-11-12T23:05:58.373Z,3.03
2017-11-12T23:08:29.515Z,2.96
2017-11-12T23:11:01.201Z,2.95
2017-11-12T23:13:53.047Z,3.02
2017-11-12T23:16:25.761Z,3.08
2017-11-12T23:19:07.350Z,2.92
2017-11-12T23:21:40.109Z,3.09
2017-11-12T23:24:15.803Z,3.06
2017-11-12T23:26:48.503Z,3.05
2017-11-12T23:29:19.609Z,3.11
2017-11-12T23:31:52.293Z,3.09
2017-11-12T23:34:28.362Z,3.13
2017-11-12T23:37:07.039Z,3.13
2017-11-12T23:39:38.434Z,3.20
2017-11-12T23:42:17.299Z,3.12
2017-11-12T23:44:48.263Z,3.19
2017-11-12T23:47:30.248Z,3.19
2017-11-12T23:50:03.322Z,3.20
2017-11-12T23:52:41.751Z,3.13
2017-11-12T23:55:14.838Z,3.15
2017-11-12T23:57:49.700Z,3.21
